X  Close Metar Aviation Weather Data     KSLC Salt Lake City International Airport
Temperature
11°C Temperature
-2°C Dewpoint
41% Humidity



Wind
15 MPH
24 KM/H
7 M/S
13 KTS



140°
SE
Current Conditions

Mostly Cloudy Mostly Cloudy
Pressure 1014.22 (hPa) - 29.95 (inHg)
Visibility 10 (mile) - 16.1 (km)
Airport
Airport-code KSLC

Location: Salt Lake City International Airport
Distance: 15 (mi)

Metar:
KSLC 221054Z 14013KT 10SM BKN170 OVC200 11/M02 A2995 RMK AO2 SLP111 T01111022 $

Time: 2024-05-22 04:54 MDT